createdAt,value
2022-08-27T00:03:31.485Z,52.80
2022-08-27T00:08:34.453Z,52.73
2022-08-27T00:13:38.804Z,52.98
2022-08-27T00:18:43.176Z,52.99
2022-08-27T00:23:51.427Z,53.00
2022-08-27T00:28:54.406Z,53.25
2022-08-27T00:33:57.957Z,53.33
2022-08-27T00:39:00.949Z,53.40
2022-08-27T00:44:04.602Z,53.45
2022-08-27T00:49:18.289Z,53.39
2022-08-27T00:54:22.349Z,53.53
2022-08-27T00:59:29.432Z,53.61
2022-08-27T01:04:35.942Z,53.78
2022-08-27T01:09:40.646Z,53.81
2022-08-27T01:14:45.588Z,53.92
2022-08-27T01:19:51.145Z,53.82
2022-08-27T01:25:01.310Z,54.13
2022-08-27T01:30:07.177Z,54.26
2022-08-27T01:35:13.915Z,54.57
2022-08-27T01:40:19.029Z,54.51
2022-08-27T01:45:30.267Z,54.81
2022-08-27T01:50:36.465Z,54.80
2022-08-27T01:55:40.727Z,54.93
2022-08-27T02:00:56.551Z,54.95
2022-08-27T02:06:03.419Z,54.94
2022-08-27T02:11:08.523Z,54.84
2022-08-27T02:16:13.539Z,54.95
2022-08-27T02:21:18.550Z,54.99
2022-08-27T02:26:22.333Z,55.07
2022-08-27T02:31:25.572Z,55.13
2022-08-27T02:36:28.745Z,55.21
2022-08-27T02:41:31.867Z,55.22
2022-08-27T02:46:34.793Z,55.37
2022-08-27T02:51:37.937Z,55.44
2022-08-27T02:56:42.012Z,55.63
2022-08-27T03:01:45.124Z,55.66
2022-08-27T03:06:48.191Z,55.79
2022-08-27T03:11:51.172Z,55.94
2022-08-27T03:16:55.257Z,55.96
2022-08-27T03:21:58.168Z,56.03
2022-08-27T03:27:01.083Z,56.05
2022-08-27T03:32:07.023Z,55.95
2022-08-27T03:37:10.044Z,55.94
2022-08-27T03:42:12.911Z,56.00
2022-08-27T03:47:16.173Z,56.15
2022-08-27T03:52:19.612Z,56.28
2022-08-27T03:57:22.724Z,56.29
2022-08-27T04:02:26.390Z,56.27
2022-08-27T04:07:29.570Z,56.51
2022-08-27T04:12:32.568Z,56.64
2022-08-27T04:17:35.753Z,56.75
2022-08-27T04:22:39.610Z,56.90
2022-08-27T04:27:43.593Z,56.91
2022-08-27T04:32:46.539Z,57.02
2022-08-27T04:37:49.642Z,56.86
2022-08-27T04:42:52.943Z,56.84
2022-08-27T04:47:56.153Z,56.79
2022-08-27T04:52:59.076Z,56.74
2022-08-27T04:58:02.718Z,56.89
2022-08-27T05:03:05.840Z,57.00
2022-08-27T05:08:10.800Z,57.03
2022-08-27T05:13:14.379Z,56.98
2022-08-27T05:18:17.472Z,57.14
2022-08-27T05:23:20.974Z,57.37
2022-08-27T05:28:28.062Z,57.74
2022-08-27T05:33:31.320Z,57.63
2022-08-27T05:38:35.133Z,57.59
2022-08-27T05:43:40.409Z,57.65
2022-08-27T05:48:43.543Z,57.55
2022-08-27T05:53:47.081Z,57.54
2022-08-27T05:59:09.083Z,57.34
2022-08-27T06:04:18.146Z,57.22
2022-08-27T06:09:26.443Z,57.11
2022-08-27T06:14:30.753Z,57.08
2022-08-27T06:19:34.957Z,56.98
2022-08-27T06:24:40.273Z,56.99
2022-08-27T06:29:43.871Z,57.01
2022-08-27T06:34:47.527Z,56.93
2022-08-27T06:39:51.771Z,56.95
2022-08-27T06:44:56.922Z,56.98
2022-08-27T06:50:00.209Z,56.96
2022-08-27T06:55:03.980Z,56.64
2022-08-27T07:00:09.973Z,56.22
2022-08-27T07:05:12.952Z,55.91
2022-08-27T07:10:16.014Z,55.69
2022-08-27T07:15:19.203Z,55.46
2022-08-27T07:20:26.542Z,55.24
2022-08-27T07:25:32.279Z,55.14
2022-08-27T07:30:37.723Z,55.05
2022-08-27T07:35:41.045Z,54.84
2022-08-27T07:40:44.248Z,54.84
2022-08-27T07:45:48.846Z,54.73
2022-08-27T07:50:52.924Z,54.59
2022-08-27T07:55:55.987Z,54.81
2022-08-27T08:00:59.165Z,55.23
2022-08-27T08:06:09.283Z,55.20
2022-08-27T08:11:16.042Z,55.01
2022-08-27T08:16:19.682Z,54.57
2022-08-27T08:21:22.809Z,54.17
2022-08-27T08:26:25.861Z,53.58
2022-08-27T08:31:28.873Z,52.98
2022-08-27T08:36:32.809Z,52.60
2022-08-27T08:41:42.793Z,52.52
2022-08-27T08:47:17.030Z,52.31
2022-08-27T08:52:34.753Z,51.75
2022-08-27T08:58:15.478Z,51.53
2022-08-27T09:03:18.581Z,51.18
2022-08-27T09:08:40.417Z,50.70
2022-08-27T09:13:52.221Z,50.43
2022-08-27T09:18:55.636Z,50.08
2022-08-27T09:24:25.371Z,49.79
2022-08-27T09:29:30.111Z,49.41
2022-08-27T09:34:37.498Z,49.04
2022-08-27T09:39:46.234Z,48.71
2022-08-27T09:44:53.507Z,48.23
2022-08-27T09:50:07.539Z,47.66
2022-08-27T09:55:12.083Z,47.79
2022-08-27T10:00:17.326Z,47.66
2022-08-27T10:05:29.386Z,47.18
2022-08-27T10:10:57.077Z,47.07
2022-08-27T10:16:16.759Z,47.06
2022-08-27T10:21:29.291Z,47.04
2022-08-27T10:26:45.887Z,46.83
2022-08-27T10:32:22.813Z,46.57
2022-08-27T10:37:36.805Z,46.25
2022-08-27T10:43:09.599Z,45.46
2022-08-27T10:48:24.693Z,44.96
2022-08-27T10:53:34.990Z,44.35
2022-08-27T10:59:17.216Z,44.00
2022-08-27T11:04:26.135Z,43.25
2022-08-27T11:10:02.052Z,42.57
2022-08-27T11:15:21.041Z,42.21
2022-08-27T11:20:32.394Z,41.79
2022-08-27T11:26:02.691Z,41.14
2022-08-27T11:31:19.796Z,40.68
2022-08-27T11:36:45.575Z,39.68
2022-08-27T11:42:11.618Z,39.55
2022-08-27T11:47:21.638Z,38.88
2022-08-27T11:52:27.281Z,38.88
2022-08-27T11:57:36.892Z,39.14
2022-08-27T12:02:40.752Z,39.31
2022-08-27T12:07:46.239Z,39.31
2022-08-27T12:13:00.844Z,39.39
2022-08-27T12:18:20.511Z,39.10
2022-08-27T12:23:42.423Z,38.96
2022-08-27T12:28:45.596Z,38.72
2022-08-27T12:33:51.698Z,38.75
2022-08-27T12:38:58.192Z,38.50
2022-08-27T12:44:11.351Z,37.90
2022-08-27T12:49:38.498Z,37.69
2022-08-27T12:54:52.946Z,37.50
2022-08-27T13:00:15.497Z,37.35
2022-08-27T13:05:21.841Z,37.05
2022-08-27T13:10:29.522Z,36.96
2022-08-27T13:15:34.286Z,36.99
2022-08-27T13:20:40.236Z,36.53
2022-08-27T13:25:54.578Z,35.86
2022-08-27T13:30:59.482Z,35.43
2022-08-27T13:36:04.178Z,35.52
2022-08-27T13:41:22.711Z,35.35
2022-08-27T13:46:30.001Z,35.38
2022-08-27T13:51:35.773Z,35.44
2022-08-27T13:56:57.649Z,35.34
2022-08-27T14:02:12.103Z,35.05
2022-08-27T14:07:25.943Z,35.15
2022-08-27T14:12:33.094Z,35.31
2022-08-27T14:17:38.437Z,35.04
2022-08-27T14:22:42.457Z,35.02
2022-08-27T14:27:54.379Z,35.07
2022-08-27T14:33:00.583Z,34.95
2022-08-27T14:38:18.745Z,34.72
2022-08-27T14:43:22.984Z,34.48
2022-08-27T14:48:30.654Z,34.32
2022-08-27T14:53:33.566Z,34.32
2022-08-27T14:58:36.747Z,34.40
2022-08-27T15:03:47.654Z,34.56
2022-08-27T15:08:51.547Z,34.55
2022-08-27T15:13:56.333Z,34.76
2022-08-27T15:19:01.044Z,34.52
2022-08-27T15:24:08.958Z,34.47
2022-08-27T15:29:12.336Z,34.39
2022-08-27T15:34:15.530Z,34.52
2022-08-27T15:39:18.492Z,34.69
2022-08-27T15:44:21.520Z,34.91
2022-08-27T15:49:24.485Z,34.89
2022-08-27T15:54:28.130Z,35.04
2022-08-27T15:59:32.324Z,35.05
2022-08-27T16:04:35.228Z,35.57
2022-08-27T16:09:38.703Z,36.95
2022-08-27T16:14:41.585Z,38.71
2022-08-27T16:19:44.508Z,39.82
2022-08-27T16:24:47.562Z,40.90
2022-08-27T16:29:51.100Z,41.54
2022-08-27T16:34:55.902Z,42.25
2022-08-27T16:39:59.062Z,42.76
2022-08-27T16:45:02.098Z,43.36
2022-08-27T16:50:26.166Z,43.81
2022-08-27T16:55:29.580Z,44.22
2022-08-27T17:00:33.497Z,44.49
2022-08-27T17:05:36.713Z,44.71
2022-08-27T17:10:45.821Z,44.76
2022-08-27T17:15:52.910Z,44.96
2022-08-27T17:20:57.784Z,45.05
2022-08-27T17:26:01.407Z,45.14
2022-08-27T17:31:04.737Z,45.23
2022-08-27T17:36:09.745Z,45.33
2022-08-27T17:41:20.084Z,45.37
2022-08-27T17:46:24.201Z,45.40
2022-08-27T17:51:28.041Z,45.50
2022-08-27T17:56:30.989Z,45.68
2022-08-27T18:01:34.537Z,46.01
2022-08-27T18:06:39.218Z,46.29
2022-08-27T18:11:43.161Z,46.49
2022-08-27T18:16:46.899Z,46.75
2022-08-27T18:21:50.660Z,46.85
2022-08-27T18:26:53.855Z,46.99
2022-08-27T18:31:57.029Z,47.38
2022-08-27T18:37:00.141Z,47.62
2022-08-27T18:42:04.086Z,47.78
2022-08-27T18:47:07.252Z,48.15
2022-08-27T18:52:12.256Z,48.17
2022-08-27T18:57:15.126Z,48.18
2022-08-27T19:02:21.050Z,48.08
2022-08-27T19:07:25.152Z,48.08
2022-08-27T19:12:28.058Z,48.44
2022-08-27T19:17:33.835Z,49.07
2022-08-27T19:22:36.840Z,49.74
2022-08-27T19:27:40.075Z,50.38
2022-08-27T19:32:43.647Z,51.02
2022-08-27T19:37:52.989Z,51.52
2022-08-27T19:42:56.419Z,51.75
2022-08-27T19:47:59.865Z,51.64
2022-08-27T19:53:02.990Z,52.02
2022-08-27T19:58:05.824Z,52.05
2022-08-27T20:03:10.072Z,52.03
2022-08-27T20:08:13.273Z,52.14
2022-08-27T20:13:18.292Z,52.46
2022-08-27T20:18:23.161Z,52.33
2022-08-27T20:23:26.049Z,52.50
2022-08-27T20:28:43.699Z,52.74
2022-08-27T20:33:46.936Z,53.00
2022-08-27T20:38:50.258Z,53.29
2022-08-27T20:43:53.233Z,53.65
2022-08-27T20:48:56.669Z,53.89
2022-08-27T20:54:01.125Z,54.11
2022-08-27T20:59:23.177Z,54.33
2022-08-27T21:04:26.549Z,54.77
2022-08-27T21:09:29.540Z,55.05
2022-08-27T21:14:33.128Z,55.16
2022-08-27T21:19:38.191Z,55.20
2022-08-27T21:24:41.111Z,55.33
2022-08-27T21:29:44.983Z,55.51
2022-08-27T21:34:48.000Z,55.86
2022-08-27T21:39:52.357Z,56.32
2022-08-27T21:44:55.408Z,56.86
2022-08-27T21:49:58.316Z,57.39
2022-08-27T21:55:01.211Z,57.78
2022-08-27T22:00:16.852Z,58.10
2022-08-27T22:05:20.471Z,58.31
2022-08-27T22:10:23.437Z,58.35
2022-08-27T22:15:26.546Z,58.45
2022-08-27T22:20:29.849Z,58.68
2022-08-27T22:25:33.262Z,58.75
2022-08-27T22:30:36.170Z,58.95
2022-08-27T22:35:39.650Z,59.01
2022-08-27T22:40:42.604Z,59.29
2022-08-27T22:45:45.712Z,59.25
2022-08-27T22:50:49.088Z,59.04
2022-08-27T22:55:52.139Z,59.13
2022-08-27T23:00:55.212Z,59.24
2022-08-27T23:05:58.369Z,59.31
2022-08-27T23:11:02.616Z,59.29
2022-08-27T23:16:06.149Z,59.47
2022-08-27T23:21:11.278Z,59.56
2022-08-27T23:26:32.678Z,59.46
2022-08-27T23:31:35.717Z,59.46
2022-08-27T23:36:38.712Z,59.60
2022-08-27T23:41:43.987Z,59.69
2022-08-27T23:46:48.727Z,59.65
2022-08-27T23:51:53.725Z,59.62
2022-08-27T23:56:56.711Z,59.63
